CDT,Max TemperatureF,Mean TemperatureF,Min TemperatureF,Max Dew PointF,MeanDew PointF,Min DewpointF,Max Humidity, Mean Humidity, Min Humidity, Max Sea Level PressureIn, Mean Sea Level PressureIn, Min Sea Level PressureIn, Max VisibilityMiles, Mean VisibilityMiles, Min VisibilityMiles, Max Wind SpeedMPH, Mean Wind SpeedMPH, Max Gust SpeedMPH,PrecipitationIn, CloudCover, Events, WindDirDegrees
2013-10-1,79,68,55,58,51,38,81,58,34,29.95,29.80,29.74,10,10,10,16,6,25,0.00,0,,233
2013-10-2,74,58,41,45,40,34,90,54,23,30.11,30.04,29.96,10,10,10,9,2,,0.00,0,,192
2013-10-3,70,61,53,59,53,42,91,78,56,29.99,29.94,29.89,10,9,2,15,6,22,0.48,6,Rain-Thunderstorm,57
2013-10-4,58,56,55,56,55,53,94,91,88,30.08,30.02,29.93,10,6,1,16,10,23,0.28,8,Rain-Thunderstorm,52
2013-10-5,64,60,58,62,59,56,96,94,92,30.02,29.89,29.71,10,5,0,16,11,23,1.24,8,Fog-Rain-Thunderstorm,70
2013-10-6,62,56,49,63,46,37,95,70,40,29.71,29.69,29.65,10,10,5,14,6,20,0.10,4,Rain,254
2013-10-7,65,54,43,48,42,36,93,70,34,30.06,29.85,29.66,10,10,4,16,6,28,0.01,2,Rain,291
2013-10-8,75,57,39,51,44,38,95,68,32,30.14,30.09,30.04,10,10,7,10,2,18,0.00,0,,183
2013-10-9,74,62,49,50,48,45,90,66,38,30.19,30.15,30.09,10,10,10,10,2,16,0.00,0,,193
2013-10-10,73,58,42,52,47,41,96,73,33,30.18,30.13,30.07,10,8,0,8,1,16,0.00,0,Fog,152
2013-10-11,75,62,49,61,52,48,97,78,47,30.09,30.02,29.93,10,6,0,16,4,24,0.00,5,Fog-Rain,109
2013-10-12,72,61,51,60,50,36,90,64,38,30.11,29.93,29.87,10,10,7,20,8,29,0.01,5,Rain-Thunderstorm,205
2013-10-13,61,50,39,43,39,34,93,65,39,30.41,30.30,30.12,10,10,10,14,5,17,0.00,3,,276
2013-10-14,62,49,36,47,41,34,94,75,44,30.46,30.36,30.20,10,10,10,12,3,,0.00,1,,79
2013-10-15,57,52,46,55,50,43,94,89,80,30.18,29.88,29.71,10,7,2,13,6,20,0.68,6,Rain,141
2013-10-16,53,50,46,48,44,38,94,80,68,29.91,29.81,29.71,10,10,4,10,6,,0.02,8,Rain,300
2013-10-17,56,46,37,42,39,34,93,75,44,29.91,29.82,29.75,10,10,10,10,2,20,0.00,3,,260
2013-10-18,51,45,40,45,41,37,90,85,72,29.90,29.81,29.75,10,10,5,10,2,,0.04,7,Rain,274
2013-10-19,53,42,32,38,35,30,96,80,42,29.88,29.75,29.67,10,9,0,16,3,21,0.00,4,Fog-Rain,236
2013-10-20,45,40,34,41,36,32,96,90,69,29.83,29.75,29.65,10,7,0,7,3,,0.08,6,Fog-Rain,211
2013-10-21,43,38,34,42,29,21,94,69,52,29.85,29.80,29.66,10,10,5,16,9,30,0.00,7,,266
2013-10-22,47,38,31,32,28,24,83,66,48,29.95,29.89,29.80,10,10,10,14,7,17,0.00,6,,286
2013-10-23,46,38,31,28,25,22,83,64,41,29.97,29.93,29.90,10,10,10,15,6,22,0.00,7,,281
2013-10-24,47,38,30,30,26,23,78,62,43,30.24,30.10,29.97,10,10,10,15,6,20,0.00,6,,287
2013-10-25,52,39,27,32,27,25,93,64,42,30.29,30.10,29.70,10,10,10,16,5,30,0.00,4,,229
2013-10-26,52,44,36,39,32,26,80,58,45,30.03,29.85,29.65,10,10,7,18,10,28,0.01,6,Rain,301
2013-10-27,54,43,32,32,30,26,90,63,34,30.08,29.93,29.82,10,10,10,16,4,22,0.00,2,,255
2013-10-28,43,36,29,33,25,20,79,62,44,30.46,30.37,30.09,10,10,10,22,13,30,0.00,2,,48
2013-10-29,42,36,29,37,31,23,84,77,72,30.46,30.32,30.17,10,10,10,8,5,,0.00,6,,55
2013-10-30,56,48,40,52,43,36,95,87,75,30.16,30.01,29.75,10,7,0,10,3,17,0.00,8,Fog-Rain,88
2013-10-31,56,51,46,55,52,46,97,96,95,29.75,29.41,29.19,10,2,0,14,1,21,0.82,8,Fog-Rain-Thunderstorm,260